Terminal Aerodrome Forecast
Issued by NWS

Home | Current Version | Previous Version | Text Only | Print | Product List | Glossary On
Versions: 1 2 3 4 5 6 7 8 9 10 11 12 13 14 15 16 17 18 19 20 21 22 23 24 25 26 27 28 29 30 31
000
FTAK31 PANC 161137
TAFAVD
TAF
PAVD 161137Z 1612/1712 VRB03KT 6SM -RA BR BKN003 OVC025
      TEMPO 1612/1616 FEW003 OVC050
     FM162200 VRB03KT P6SM -SHRA BKN025
     FM170000 VRB03KT P6SM -SHRA BKN045
      AMD LTD TO CLD VIS AND WIND=

USA.gov is the U.S. government's official web portal to all federal, state and local government web resources and services.